sensor_id;sensor_type;location;lat;lon;timestamp;temperature;humidity
827;DHT22;395;48.132;11.608;2023-01-16T00:02:06;6.70;1.00
827;DHT22;395;48.132;11.608;2023-01-16T00:04:31;6.70;1.00
827;DHT22;395;48.132;11.608;2023-01-16T00:06:59;6.70;1.00
827;DHT22;395;48.132;11.608;2023-01-16T00:09:25;6.60;1.00
827;DHT22;395;48.132;11.608;2023-01-16T00:11:50;6.60;1.00
827;DHT22;395;48.132;11.608;2023-01-16T00:14:16;6.60;1.00
827;DHT22;395;48.132;11.608;2023-01-16T00:16:42;6.60;1.00
827;DHT22;395;48.132;11.608;2023-01-16T00:19:09;6.60;1.00
827;DHT22;395;48.132;11.608;2023-01-16T00:21:35;6.50;1.00
827;DHT22;395;48.132;11.608;2023-01-16T00:24:01;6.60;1.00
827;DHT22;395;48.132;11.608;2023-01-16T00:26:28;6.50;1.00
827;DHT22;395;48.132;11.608;2023-01-16T00:28:54;6.50;1.00
827;DHT22;395;48.132;11.608;2023-01-16T00:31:20;6.60;1.00
827;DHT22;395;48.132;11.608;2023-01-16T00:33:48;6.50;1.00
827;DHT22;395;48.132;11.608;2023-01-16T00:36:14;6.50;1.00
827;DHT22;395;48.132;11.608;2023-01-16T00:38:40;6.50;1.00
827;DHT22;395;48.132;11.608;2023-01-16T00:41:06;6.50;1.00
827;DHT22;395;48.132;11.608;2023-01-16T00:43:32;6.50;1.00
827;DHT22;395;48.132;11.608;2023-01-16T00:45:58;6.50;1.00
827;DHT22;395;48.132;11.608;2023-01-16T00:48:24;6.50;1.00
827;DHT22;395;48.132;11.608;2023-01-16T00:50:50;6.50;1.00
827;DHT22;395;48.132;11.608;2023-01-16T00:53:16;6.50;1.00
827;DHT22;395;48.132;11.608;2023-01-16T00:55:42;6.50;1.00
827;DHT22;395;48.132;11.608;2023-01-16T00:58:08;6.50;1.00
827;DHT22;395;48.132;11.608;2023-01-16T01:00:35;6.40;1.00
827;DHT22;395;48.132;11.608;2023-01-16T01:03:01;6.40;1.00
827;DHT22;395;48.132;11.608;2023-01-16T01:05:27;6.40;1.00
827;DHT22;395;48.132;11.608;2023-01-16T01:07:53;6.40;1.00
827;DHT22;395;48.132;11.608;2023-01-16T01:10:19;6.40;1.00
827;DHT22;395;48.132;11.608;2023-01-16T01:12:45;6.40;1.00
827;DHT22;395;48.132;11.608;2023-01-16T01:15:10;6.30;1.00
827;DHT22;395;48.132;11.608;2023-01-16T01:17:36;6.30;1.00
827;DHT22;395;48.132;11.608;2023-01-16T01:20:03;6.30;1.00
827;DHT22;395;48.132;11.608;2023-01-16T01:22:29;6.30;1.00
827;DHT22;395;48.132;11.608;2023-01-16T01:24:54;6.30;1.00
827;DHT22;395;48.132;11.608;2023-01-16T01:27:20;6.30;1.00
827;DHT22;395;48.132;11.608;2023-01-16T01:29:46;6.30;1.00
827;DHT22;395;48.132;11.608;2023-01-16T01:32:11;6.30;1.00
827;DHT22;395;48.132;11.608;2023-01-16T01:34:37;6.30;1.00
827;DHT22;395;48.132;11.608;2023-01-16T01:37:05;6.30;1.00
827;DHT22;395;48.132;11.608;2023-01-16T01:39:31;6.30;1.00
827;DHT22;395;48.132;11.608;2023-01-16T01:41:57;6.30;1.00
827;DHT22;395;48.132;11.608;2023-01-16T01:45:09;6.40;1.00
827;DHT22;395;48.132;11.608;2023-01-16T01:47:38;6.30;1.00
827;DHT22;395;48.132;11.608;2023-01-16T01:50:15;6.30;1.00
827;DHT22;395;48.132;11.608;2023-01-16T01:52:42;6.30;1.00
827;DHT22;395;48.132;11.608;2023-01-16T01:55:09;6.30;1.00
827;DHT22;395;48.132;11.608;2023-01-16T01:57:42;6.30;1.00
827;DHT22;395;48.132;11.608;2023-01-16T02:00:14;6.30;1.00
827;DHT22;395;48.132;11.608;2023-01-16T02:02:45;6.30;1.00
827;DHT22;395;48.132;11.608;2023-01-16T02:05:13;6.30;1.00
827;DHT22;395;48.132;11.608;2023-01-16T02:07:41;6.30;1.00
827;DHT22;395;48.132;11.608;2023-01-16T02:10:49;6.30;1.00
827;DHT22;395;48.132;11.608;2023-01-16T02:13:13;6.30;1.00
827;DHT22;395;48.132;11.608;2023-01-16T02:15:39;6.20;1.00
827;DHT22;395;48.132;11.608;2023-01-16T02:18:28;6.20;1.00
827;DHT22;395;48.132;11.608;2023-01-16T02:21:43;6.20;1.00
827;DHT22;395;48.132;11.608;2023-01-16T02:32:22;6.10;1.00
827;DHT22;395;48.132;11.608;2023-01-16T02:38:34;6.10;1.00
827;DHT22;395;48.132;11.608;2023-01-16T02:44:05;6.10;1.00
827;DHT22;395;48.132;11.608;2023-01-16T02:49:39;6.10;1.00
827;DHT22;395;48.132;11.608;2023-01-16T02:52:27;6.10;1.00
827;DHT22;395;48.132;11.608;2023-01-16T02:55:03;6.10;1.00
827;DHT22;395;48.132;11.608;2023-01-16T02:57:40;6.10;1.00
827;DHT22;395;48.132;11.608;2023-01-16T03:00:08;6.10;1.00
827;DHT22;395;48.132;11.608;2023-01-16T03:02:34;6.00;1.00
827;DHT22;395;48.132;11.608;2023-01-16T03:05:00;6.00;1.00
827;DHT22;395;48.132;11.608;2023-01-16T03:13:11;6.00;1.00
827;DHT22;395;48.132;11.608;2023-01-16T03:18:36;6.00;1.00
827;DHT22;395;48.132;11.608;2023-01-16T03:24:07;6.00;1.00
827;DHT22;395;48.132;11.608;2023-01-16T03:26:43;6.00;1.00
827;DHT22;395;48.132;11.608;2023-01-16T03:32:07;6.00;1.00
827;DHT22;395;48.132;11.608;2023-01-16T03:34:42;6.00;1.00
827;DHT22;395;48.132;11.608;2023-01-16T03:37:30;6.00;1.00
827;DHT22;395;48.132;11.608;2023-01-16T03:40:02;6.00;1.00
827;DHT22;395;48.132;11.608;2023-01-16T03:42:51;6.00;1.00
827;DHT22;395;48.132;11.608;2023-01-16T03:45:23;6.00;1.00
827;DHT22;395;48.132;11.608;2023-01-16T03:47:58;5.90;1.00
827;DHT22;395;48.132;11.608;2023-01-16T03:50:25;6.00;1.00
827;DHT22;395;48.132;11.608;2023-01-16T03:52:56;5.90;1.00
827;DHT22;395;48.132;11.608;2023-01-16T03:55:53;5.80;1.00
827;DHT22;395;48.132;11.608;2023-01-16T03:58:26;5.90;1.00
827;DHT22;395;48.132;11.608;2023-01-16T04:03:40;5.80;1.00
827;DHT22;395;48.132;11.608;2023-01-16T04:06:20;5.90;1.00
827;DHT22;395;48.132;11.608;2023-01-16T04:08:51;5.80;1.00
827;DHT22;395;48.132;11.608;2023-01-16T04:11:21;5.80;1.00
827;DHT22;395;48.132;11.608;2023-01-16T04:13:49;5.80;1.00
827;DHT22;395;48.132;11.608;2023-01-16T04:16:18;5.80;1.00
827;DHT22;395;48.132;11.608;2023-01-16T04:18:46;5.80;1.00
827;DHT22;395;48.132;11.608;2023-01-16T04:21:11;5.70;1.00
827;DHT22;395;48.132;11.608;2023-01-16T04:23:37;5.70;1.00
827;DHT22;395;48.132;11.608;2023-01-16T04:26:03;5.70;1.00
827;DHT22;395;48.132;11.608;2023-01-16T04:28:29;5.70;1.00
827;DHT22;395;48.132;11.608;2023-01-16T04:30:55;5.70;1.00
827;DHT22;395;48.132;11.608;2023-01-16T04:33:20;5.70;1.00
827;DHT22;395;48.132;11.608;2023-01-16T04:35:46;5.70;1.00
827;DHT22;395;48.132;11.608;2023-01-16T04:38:12;5.60;1.00
827;DHT22;395;48.132;11.608;2023-01-16T04:40:38;5.60;1.00
827;DHT22;395;48.132;11.608;2023-01-16T04:43:04;5.70;1.00
827;DHT22;395;48.132;11.608;2023-01-16T04:45:29;5.60;1.00
827;DHT22;395;48.132;11.608;2023-01-16T04:47:55;5.60;1.00
827;DHT22;395;48.132;11.608;2023-01-16T04:50:21;5.60;1.00
827;DHT22;395;48.132;11.608;2023-01-16T04:52:47;5.60;1.00
827;DHT22;395;48.132;11.608;2023-01-16T04:55:13;5.30;1.00
827;DHT22;395;48.132;11.608;2023-01-16T04:57:39;5.50;1.00
827;DHT22;395;48.132;11.608;2023-01-16T05:00:06;5.50;1.00
827;DHT22;395;48.132;11.608;2023-01-16T05:02:32;5.50;1.00
827;DHT22;395;48.132;11.608;2023-01-16T05:04:58;5.50;1.00
827;DHT22;395;48.132;11.608;2023-01-16T05:07:24;5.50;1.00
827;DHT22;395;48.132;11.608;2023-01-16T05:09:52;5.50;1.00
827;DHT22;395;48.132;11.608;2023-01-16T05:12:17;5.60;1.00
827;DHT22;395;48.132;11.608;2023-01-16T05:14:43;5.40;1.00
827;DHT22;395;48.132;11.608;2023-01-16T05:17:09;5.60;1.00
827;DHT22;395;48.132;11.608;2023-01-16T05:19:34;5.50;1.00
827;DHT22;395;48.132;11.608;2023-01-16T05:22:00;5.50;1.00
827;DHT22;395;48.132;11.608;2023-01-16T05:24:25;5.50;1.00
827;DHT22;395;48.132;11.608;2023-01-16T05:26:51;5.40;1.00
827;DHT22;395;48.132;11.608;2023-01-16T05:29:17;5.50;1.00
827;DHT22;395;48.132;11.608;2023-01-16T05:31:42;5.40;1.00
827;DHT22;395;48.132;11.608;2023-01-16T05:34:09;5.30;1.00
827;DHT22;395;48.132;11.608;2023-01-16T05:36:34;5.40;1.00
827;DHT22;395;48.132;11.608;2023-01-16T05:39:01;5.30;1.00
827;DHT22;395;48.132;11.608;2023-01-16T05:41:26;5.30;1.00
827;DHT22;395;48.132;11.608;2023-01-16T05:43:52;5.30;1.00
827;DHT22;395;48.132;11.608;2023-01-16T05:46:17;5.30;1.00
827;DHT22;395;48.132;11.608;2023-01-16T05:48:43;5.30;1.00
827;DHT22;395;48.132;11.608;2023-01-16T05:51:09;5.30;1.00
827;DHT22;395;48.132;11.608;2023-01-16T05:53:34;5.20;1.00
827;DHT22;395;48.132;11.608;2023-01-16T05:56:06;5.30;1.00
827;DHT22;395;48.132;11.608;2023-01-16T05:58:32;5.30;1.00
827;DHT22;395;48.132;11.608;2023-01-16T06:00:58;5.30;1.00
827;DHT22;395;48.132;11.608;2023-01-16T06:03:24;5.30;1.00
827;DHT22;395;48.132;11.608;2023-01-16T06:05:49;5.30;1.00
827;DHT22;395;48.132;11.608;2023-01-16T06:08:15;5.30;1.00
827;DHT22;395;48.132;11.608;2023-01-16T06:10:40;5.40;1.00
827;DHT22;395;48.132;11.608;2023-01-16T06:13:06;5.30;1.00
827;DHT22;395;48.132;11.608;2023-01-16T06:15:32;5.30;1.00
827;DHT22;395;48.132;11.608;2023-01-16T06:17:57;5.30;1.00
827;DHT22;395;48.132;11.608;2023-01-16T06:20:24;5.30;1.00
827;DHT22;395;48.132;11.608;2023-01-16T06:22:49;5.20;1.00
827;DHT22;395;48.132;11.608;2023-01-16T06:25:15;5.20;1.00
827;DHT22;395;48.132;11.608;2023-01-16T06:27:41;5.20;1.00
827;DHT22;395;48.132;11.608;2023-01-16T06:30:07;5.20;1.00
827;DHT22;395;48.132;11.608;2023-01-16T06:32:33;5.20;1.00
827;DHT22;395;48.132;11.608;2023-01-16T06:34:58;5.10;1.00
827;DHT22;395;48.132;11.608;2023-01-16T06:37:24;5.10;1.00
827;DHT22;395;48.132;11.608;2023-01-16T06:39:49;5.10;1.00
827;DHT22;395;48.132;11.608;2023-01-16T06:42:15;5.10;1.00
827;DHT22;395;48.132;11.608;2023-01-16T06:44:41;5.10;1.00
827;DHT22;395;48.132;11.608;2023-01-16T06:47:07;5.10;1.00
827;DHT22;395;48.132;11.608;2023-01-16T06:49:34;5.20;1.00
827;DHT22;395;48.132;11.608;2023-01-16T06:51:59;5.10;1.00
827;DHT22;395;48.132;11.608;2023-01-16T06:54:25;5.10;1.00
827;DHT22;395;48.132;11.608;2023-01-16T06:56:51;5.10;1.00
827;DHT22;395;48.132;11.608;2023-01-16T06:59:17;5.10;1.00
827;DHT22;395;48.132;11.608;2023-01-16T07:01:43;5.10;1.00
827;DHT22;395;48.132;11.608;2023-01-16T07:04:08;5.10;1.00
827;DHT22;395;48.132;11.608;2023-01-16T07:06:35;5.10;1.00
827;DHT22;395;48.132;11.608;2023-01-16T07:09:02;5.10;1.00
827;DHT22;395;48.132;11.608;2023-01-16T07:11:27;5.10;1.00
827;DHT22;395;48.132;11.608;2023-01-16T07:13:53;5.10;1.00
827;DHT22;395;48.132;11.608;2023-01-16T07:16:39;5.00;1.00
827;DHT22;395;48.132;11.608;2023-01-16T07:19:23;5.10;1.00
827;DHT22;395;48.132;11.608;2023-01-16T07:22:11;5.00;1.00
827;DHT22;395;48.132;11.608;2023-01-16T07:24:56;5.00;1.00
827;DHT22;395;48.132;11.608;2023-01-16T07:27:22;5.00;1.00
827;DHT22;395;48.132;11.608;2023-01-16T07:29:48;5.00;1.00
827;DHT22;395;48.132;11.608;2023-01-16T07:32:14;5.00;1.00
827;DHT22;395;48.132;11.608;2023-01-16T07:34:40;5.00;1.00
827;DHT22;395;48.132;11.608;2023-01-16T07:37:06;5.00;1.00
827;DHT22;395;48.132;11.608;2023-01-16T07:39:32;5.10;1.00
827;DHT22;395;48.132;11.608;2023-01-16T07:42:05;5.10;1.00
827;DHT22;395;48.132;11.608;2023-01-16T07:44:31;5.10;1.00
827;DHT22;395;48.132;11.608;2023-01-16T07:46:57;5.10;1.00
827;DHT22;395;48.132;11.608;2023-01-16T07:49:23;5.10;1.00
827;DHT22;395;48.132;11.608;2023-01-16T07:51:48;5.10;1.00
827;DHT22;395;48.132;11.608;2023-01-16T07:54:14;5.10;1.00
827;DHT22;395;48.132;11.608;2023-01-16T07:56:40;5.10;1.00
827;DHT22;395;48.132;11.608;2023-01-16T07:59:06;5.10;1.00
827;DHT22;395;48.132;11.608;2023-01-16T08:01:31;5.20;1.00
827;DHT22;395;48.132;11.608;2023-01-16T08:03:57;5.10;1.00
827;DHT22;395;48.132;11.608;2023-01-16T08:06:23;5.20;1.00
827;DHT22;395;48.132;11.608;2023-01-16T08:08:48;5.20;1.00
827;DHT22;395;48.132;11.608;2023-01-16T08:11:14;5.20;1.00
827;DHT22;395;48.132;11.608;2023-01-16T08:13:58;5.20;1.00
827;DHT22;395;48.132;11.608;2023-01-16T08:16:24;5.20;1.00
827;DHT22;395;48.132;11.608;2023-01-16T08:18:50;5.30;1.00
827;DHT22;395;48.132;11.608;2023-01-16T08:21:16;5.20;1.00
827;DHT22;395;48.132;11.608;2023-01-16T08:23:43;5.30;1.00
827;DHT22;395;48.132;11.608;2023-01-16T08:26:09;5.20;1.00
827;DHT22;395;48.132;11.608;2023-01-16T08:28:35;5.30;1.00
827;DHT22;395;48.132;11.608;2023-01-16T08:31:06;5.30;1.00
827;DHT22;395;48.132;11.608;2023-01-16T08:33:35;5.40;1.00
827;DHT22;395;48.132;11.608;2023-01-16T08:36:03;5.40;1.00
827;DHT22;395;48.132;11.608;2023-01-16T08:38:29;5.40;1.00
827;DHT22;395;48.132;11.608;2023-01-16T08:40:54;5.40;1.00
827;DHT22;395;48.132;11.608;2023-01-16T08:43:20;5.50;1.00
827;DHT22;395;48.132;11.608;2023-01-16T08:46:07;5.60;1.00
827;DHT22;395;48.132;11.608;2023-01-16T08:48:58;5.60;1.00
827;DHT22;395;48.132;11.608;2023-01-16T08:51:43;5.50;1.00
827;DHT22;395;48.132;11.608;2023-01-16T08:54:09;5.60;1.00
827;DHT22;395;48.132;11.608;2023-01-16T08:56:35;5.60;1.00
827;DHT22;395;48.132;11.608;2023-01-16T08:59:06;5.60;1.00
827;DHT22;395;48.132;11.608;2023-01-16T09:01:31;5.60;1.00
827;DHT22;395;48.132;11.608;2023-01-16T09:03:57;5.60;1.00
827;DHT22;395;48.132;11.608;2023-01-16T09:06:23;5.70;1.00
827;DHT22;395;48.132;11.608;2023-01-16T09:08:49;5.70;1.00
827;DHT22;395;48.132;11.608;2023-01-16T09:11:15;5.80;1.00
827;DHT22;395;48.132;11.608;2023-01-16T09:13:59;5.80;1.00
827;DHT22;395;48.132;11.608;2023-01-16T09:16:25;5.90;1.00
827;DHT22;395;48.132;11.608;2023-01-16T09:18:52;5.90;1.00
827;DHT22;395;48.132;11.608;2023-01-16T09:21:18;6.00;1.00
827;DHT22;395;48.132;11.608;2023-01-16T09:23:45;6.00;1.00
827;DHT22;395;48.132;11.608;2023-01-16T09:26:11;6.00;1.00
827;DHT22;395;48.132;11.608;2023-01-16T09:28:37;6.10;1.00
827;DHT22;395;48.132;11.608;2023-01-16T09:31:02;6.10;1.00
827;DHT22;395;48.132;11.608;2023-01-16T09:33:28;6.20;1.00
827;DHT22;395;48.132;11.608;2023-01-16T09:35:54;6.20;1.00
827;DHT22;395;48.132;11.608;2023-01-16T09:38:20;6.20;1.00
827;DHT22;395;48.132;11.608;2023-01-16T09:40:46;6.30;1.00
827;DHT22;395;48.132;11.608;2023-01-16T09:43:35;6.30;1.00
827;DHT22;395;48.132;11.608;2023-01-16T09:46:17;6.30;1.00
827;DHT22;395;48.132;11.608;2023-01-16T09:51:42;6.40;1.00
827;DHT22;395;48.132;11.608;2023-01-16T09:54:34;6.50;1.00
827;DHT22;395;48.132;11.608;2023-01-16T09:57:20;6.50;1.00
827;DHT22;395;48.132;11.608;2023-01-16T10:00:06;6.50;1.00
827;DHT22;395;48.132;11.608;2023-01-16T10:02:34;6.60;1.00
827;DHT22;395;48.132;11.608;2023-01-16T10:05:02;6.60;1.00
827;DHT22;395;48.132;11.608;2023-01-16T10:10:25;6.70;1.00
827;DHT22;395;48.132;11.608;2023-01-16T10:25:01;6.80;1.00
827;DHT22;395;48.132;11.608;2023-01-16T10:30:18;6.80;1.00
827;DHT22;395;48.132;11.608;2023-01-16T10:33:04;6.80;1.00
827;DHT22;395;48.132;11.608;2023-01-16T10:35:51;6.80;1.00
827;DHT22;395;48.132;11.608;2023-01-16T10:41:19;6.90;1.00
827;DHT22;395;48.132;11.608;2023-01-16T10:44:11;7.00;1.00
827;DHT22;395;48.132;11.608;2023-01-16T10:46:59;6.90;1.00
827;DHT22;395;48.132;11.608;2023-01-16T10:49:43;6.90;1.00
827;DHT22;395;48.132;11.608;2023-01-16T10:52:08;7.00;1.00
827;DHT22;395;48.132;11.608;2023-01-16T10:54:34;7.00;1.00
827;DHT22;395;48.132;11.608;2023-01-16T10:57:00;7.00;1.00
827;DHT22;395;48.132;11.608;2023-01-16T10:59:30;7.10;1.00
827;DHT22;395;48.132;11.608;2023-01-16T11:02:00;7.10;1.00
827;DHT22;395;48.132;11.608;2023-01-16T11:04:35;7.20;1.00
827;DHT22;395;48.132;11.608;2023-01-16T11:07:22;7.20;1.00
827;DHT22;395;48.132;11.608;2023-01-16T11:09:48;7.10;1.00
827;DHT22;395;48.132;11.608;2023-01-16T11:12:23;7.30;1.00
827;DHT22;395;48.132;11.608;2023-01-16T11:15:17;7.30;1.00
827;DHT22;395;48.132;11.608;2023-01-16T11:18:02;7.30;1.00
827;DHT22;395;48.132;11.608;2023-01-16T11:20:46;7.30;1.00
827;DHT22;395;48.132;11.608;2023-01-16T11:23:21;7.40;1.00
827;DHT22;395;48.132;11.608;2023-01-16T11:25:49;7.40;1.00
827;DHT22;395;48.132;11.608;2023-01-16T11:28:24;7.50;1.00
827;DHT22;395;48.132;11.608;2023-01-16T11:30:56;7.50;1.00
827;DHT22;395;48.132;11.608;2023-01-16T11:33:25;7.50;1.00
827;DHT22;395;48.132;11.608;2023-01-16T11:35:56;7.60;1.00
827;DHT22;395;48.132;11.608;2023-01-16T11:38:24;7.60;1.00
827;DHT22;395;48.132;11.608;2023-01-16T11:40:51;7.60;1.00
827;DHT22;395;48.132;11.608;2023-01-16T11:43:22;7.50;1.00
827;DHT22;395;48.132;11.608;2023-01-16T11:46:28;7.60;1.00
827;DHT22;395;48.132;11.608;2023-01-16T11:49:02;7.50;1.00
827;DHT22;395;48.132;11.608;2023-01-16T11:51:33;7.50;1.00
827;DHT22;395;48.132;11.608;2023-01-16T11:54:02;7.50;1.00
827;DHT22;395;48.132;11.608;2023-01-16T11:56:53;7.50;1.00
827;DHT22;395;48.132;11.608;2023-01-16T12:00:06;7.60;1.00
827;DHT22;395;48.132;11.608;2023-01-16T12:05:36;7.60;1.00
827;DHT22;395;48.132;11.608;2023-01-16T12:30:14;7.70;1.00
827;DHT22;395;48.132;11.608;2023-01-16T12:38:19;7.80;1.00
827;DHT22;395;48.132;11.608;2023-01-16T12:41:12;7.80;1.00
827;DHT22;395;48.132;11.608;2023-01-16T12:44:09;7.90;1.00
827;DHT22;395;48.132;11.608;2023-01-16T12:53:06;7.90;1.00
827;DHT22;395;48.132;11.608;2023-01-16T12:56:15;7.90;1.00
827;DHT22;395;48.132;11.608;2023-01-16T12:58:51;8.00;1.00
827;DHT22;395;48.132;11.608;2023-01-16T13:01:24;8.00;1.00
827;DHT22;395;48.132;11.608;2023-01-16T13:04:26;8.00;1.00
827;DHT22;395;48.132;11.608;2023-01-16T13:06:58;8.00;1.00
827;DHT22;395;48.132;11.608;2023-01-16T13:12:31;8.00;1.00
827;DHT22;395;48.132;11.608;2023-01-16T13:15:25;8.00;1.00
827;DHT22;395;48.132;11.608;2023-01-16T13:17:58;8.00;1.00
827;DHT22;395;48.132;11.608;2023-01-16T13:20:27;8.00;1.00
827;DHT22;395;48.132;11.608;2023-01-16T13:23:16;8.00;1.00
827;DHT22;395;48.132;11.608;2023-01-16T13:25:46;8.00;1.00
827;DHT22;395;48.132;11.608;2023-01-16T13:33:49;8.00;1.00
827;DHT22;395;48.132;11.608;2023-01-16T13:42:06;7.90;1.00
827;DHT22;395;48.132;11.608;2023-01-16T13:44:39;7.90;1.00
827;DHT22;395;48.132;11.608;2023-01-16T13:47:28;8.00;1.00
827;DHT22;395;48.132;11.608;2023-01-16T13:50:06;7.90;1.00
827;DHT22;395;48.132;11.608;2023-01-16T13:52:32;7.90;1.00
827;DHT22;395;48.132;11.608;2023-01-16T13:55:01;8.00;1.00
827;DHT22;395;48.132;11.608;2023-01-16T13:57:32;8.00;1.00
827;DHT22;395;48.132;11.608;2023-01-16T14:00:09;8.00;1.00
827;DHT22;395;48.132;11.608;2023-01-16T14:13:38;8.00;1.00
827;DHT22;395;48.132;11.608;2023-01-16T14:16:30;8.00;1.00
827;DHT22;395;48.132;11.608;2023-01-16T14:24:05;7.90;1.00
827;DHT22;395;48.132;11.608;2023-01-16T14:26:38;8.00;1.00
827;DHT22;395;48.132;11.608;2023-01-16T14:29:20;8.00;1.00
827;DHT22;395;48.132;11.608;2023-01-16T14:32:19;8.00;1.00
827;DHT22;395;48.132;11.608;2023-01-16T14:34:49;8.00;1.00
827;DHT22;395;48.132;11.608;2023-01-16T14:37:31;8.00;1.00
827;DHT22;395;48.132;11.608;2023-01-16T14:42:46;8.00;1.00
827;DHT22;395;48.132;11.608;2023-01-16T14:45:33;8.00;1.00
827;DHT22;395;48.132;11.608;2023-01-16T14:53:53;7.90;1.00
827;DHT22;395;48.132;11.608;2023-01-16T14:56:40;7.90;1.00
827;DHT22;395;48.132;11.608;2023-01-16T14:59:35;7.90;1.00
827;DHT22;395;48.132;11.608;2023-01-16T15:02:31;7.90;1.00
827;DHT22;395;48.132;11.608;2023-01-16T15:05:15;7.90;1.00
827;DHT22;395;48.132;11.608;2023-01-16T15:07:54;7.90;1.00
827;DHT22;395;48.132;11.608;2023-01-16T15:10:30;8.00;1.00
827;DHT22;395;48.132;11.608;2023-01-16T15:13:30;7.80;1.00
827;DHT22;395;48.132;11.608;2023-01-16T15:16:22;7.90;1.00
827;DHT22;395;48.132;11.608;2023-01-16T15:19:21;7.90;1.00
827;DHT22;395;48.132;11.608;2023-01-16T15:22:17;7.90;1.00
827;DHT22;395;48.132;11.608;2023-01-16T15:24:49;7.90;1.00
827;DHT22;395;48.132;11.608;2023-01-16T15:27:24;7.90;1.00
827;DHT22;395;48.132;11.608;2023-01-16T15:29:57;7.90;1.00
827;DHT22;395;48.132;11.608;2023-01-16T15:32:26;7.90;1.00
827;DHT22;395;48.132;11.608;2023-01-16T15:35:13;7.90;1.00
827;DHT22;395;48.132;11.608;2023-01-16T15:37:53;7.90;1.00
827;DHT22;395;48.132;11.608;2023-01-16T15:40:29;7.90;1.00
827;DHT22;395;48.132;11.608;2023-01-16T15:42:55;7.90;1.00
827;DHT22;395;48.132;11.608;2023-01-16T15:51:34;7.80;1.00
827;DHT22;395;48.132;11.608;2023-01-16T15:53:59;7.80;1.00
827;DHT22;395;48.132;11.608;2023-01-16T15:56:44;7.80;1.00
827;DHT22;395;48.132;11.608;2023-01-16T16:01:46;7.80;1.00
827;DHT22;395;48.132;11.608;2023-01-16T16:04:12;7.80;1.00
827;DHT22;395;48.132;11.608;2023-01-16T16:06:38;7.80;1.00
827;DHT22;395;48.132;11.608;2023-01-16T16:09:09;7.80;1.00
827;DHT22;395;48.132;11.608;2023-01-16T16:11:39;7.80;1.00
827;DHT22;395;48.132;11.608;2023-01-16T16:14:33;7.80;1.00
827;DHT22;395;48.132;11.608;2023-01-16T16:23:12;7.70;1.00
827;DHT22;395;48.132;11.608;2023-01-16T16:30:43;7.60;1.00
827;DHT22;395;48.132;11.608;2023-01-16T16:33:18;7.60;1.00
827;DHT22;395;48.132;11.608;2023-01-16T16:35:53;7.60;1.00
827;DHT22;395;48.132;11.608;2023-01-16T16:38:31;7.70;1.00
827;DHT22;395;48.132;11.608;2023-01-16T16:43:55;7.60;1.00
827;DHT22;395;48.132;11.608;2023-01-16T16:48:53;7.60;1.00
827;DHT22;395;48.132;11.608;2023-01-16T16:51:30;7.60;1.00
827;DHT22;395;48.132;11.608;2023-01-16T16:53:58;7.50;1.00
827;DHT22;395;48.132;11.608;2023-01-16T16:56:26;7.60;1.00
827;DHT22;395;48.132;11.608;2023-01-16T16:58:53;7.30;1.00
827;DHT22;395;48.132;11.608;2023-01-16T17:01:22;7.50;1.00
827;DHT22;395;48.132;11.608;2023-01-16T17:03:52;7.60;1.00
827;DHT22;395;48.132;11.608;2023-01-16T17:06:21;7.50;1.00
827;DHT22;395;48.132;11.608;2023-01-16T17:08:47;7.60;1.00
827;DHT22;395;48.132;11.608;2023-01-16T17:11:14;7.60;1.00
827;DHT22;395;48.132;11.608;2023-01-16T17:13:40;7.50;1.00
827;DHT22;395;48.132;11.608;2023-01-16T17:16:24;7.50;1.00
827;DHT22;395;48.132;11.608;2023-01-16T17:18:58;7.60;1.00
827;DHT22;395;48.132;11.608;2023-01-16T17:21:24;7.50;1.00
827;DHT22;395;48.132;11.608;2023-01-16T17:23:50;7.50;1.00
827;DHT22;395;48.132;11.608;2023-01-16T17:26:16;7.50;1.00
827;DHT22;395;48.132;11.608;2023-01-16T17:28:42;7.50;1.00
827;DHT22;395;48.132;11.608;2023-01-16T17:31:15;7.50;1.00
827;DHT22;395;48.132;11.608;2023-01-16T17:33:42;7.50;1.00
827;DHT22;395;48.132;11.608;2023-01-16T17:36:16;7.50;1.00
827;DHT22;395;48.132;11.608;2023-01-16T17:38:42;7.50;1.00
827;DHT22;395;48.132;11.608;2023-01-16T17:41:19;7.50;1.00
827;DHT22;395;48.132;11.608;2023-01-16T17:44:19;7.50;1.00
827;DHT22;395;48.132;11.608;2023-01-16T17:47:04;7.50;1.00
827;DHT22;395;48.132;11.608;2023-01-16T17:49:31;7.50;1.00
827;DHT22;395;48.132;11.608;2023-01-16T17:51:57;7.50;1.00
827;DHT22;395;48.132;11.608;2023-01-16T17:54:23;7.50;1.00
827;DHT22;395;48.132;11.608;2023-01-16T17:57:07;7.50;1.00
827;DHT22;395;48.132;11.608;2023-01-16T17:59:33;7.50;1.00
827;DHT22;395;48.132;11.608;2023-01-16T18:01:58;7.50;1.00
827;DHT22;395;48.132;11.608;2023-01-16T18:04:24;7.40;1.00
827;DHT22;395;48.132;11.608;2023-01-16T18:06:52;7.40;1.00
827;DHT22;395;48.132;11.608;2023-01-16T18:09:18;7.40;1.00
827;DHT22;395;48.132;11.608;2023-01-16T18:11:44;7.40;1.00
827;DHT22;395;48.132;11.608;2023-01-16T18:14:28;7.40;1.00
827;DHT22;395;48.132;11.608;2023-01-16T18:17:17;7.40;1.00
827;DHT22;395;48.132;11.608;2023-01-16T18:19:56;7.40;1.00
827;DHT22;395;48.132;11.608;2023-01-16T18:22:23;7.30;1.00
827;DHT22;395;48.132;11.608;2023-01-16T18:24:49;7.30;1.00
827;DHT22;395;48.132;11.608;2023-01-16T18:27:17;7.30;1.00
827;DHT22;395;48.132;11.608;2023-01-16T18:29:43;7.30;1.00
827;DHT22;395;48.132;11.608;2023-01-16T18:32:10;7.20;1.00
827;DHT22;395;48.132;11.608;2023-01-16T18:34:58;7.30;1.00
827;DHT22;395;48.132;11.608;2023-01-16T18:37:40;7.30;1.00
827;DHT22;395;48.132;11.608;2023-01-16T18:40:13;7.30;1.00
827;DHT22;395;48.132;11.608;2023-01-16T18:42:59;7.30;1.00
827;DHT22;395;48.132;11.608;2023-01-16T18:45:43;7.30;1.00
827;DHT22;395;48.132;11.608;2023-01-16T18:48:27;7.30;1.00
827;DHT22;395;48.132;11.608;2023-01-16T18:51:14;7.30;1.00
827;DHT22;395;48.132;11.608;2023-01-16T18:53:59;7.30;1.00
827;DHT22;395;48.132;11.608;2023-01-16T18:56:51;7.30;1.00
827;DHT22;395;48.132;11.608;2023-01-16T18:59:37;7.30;1.00
827;DHT22;395;48.132;11.608;2023-01-16T19:04:50;7.30;1.00
827;DHT22;395;48.132;11.608;2023-01-16T19:07:20;7.30;1.00
827;DHT22;395;48.132;11.608;2023-01-16T19:09:56;7.30;1.00
827;DHT22;395;48.132;11.608;2023-01-16T19:12:24;7.30;1.00
827;DHT22;395;48.132;11.608;2023-01-16T19:14:53;7.30;1.00
827;DHT22;395;48.132;11.608;2023-01-16T19:17:19;7.30;1.00
827;DHT22;395;48.132;11.608;2023-01-16T19:19:45;7.40;1.00
827;DHT22;395;48.132;11.608;2023-01-16T19:22:11;7.40;1.00
827;DHT22;395;48.132;11.608;2023-01-16T19:24:37;7.40;1.00
827;DHT22;395;48.132;11.608;2023-01-16T19:27:04;7.40;1.00
827;DHT22;395;48.132;11.608;2023-01-16T19:29:30;7.40;1.00
827;DHT22;395;48.132;11.608;2023-01-16T19:31:57;7.30;1.00
827;DHT22;395;48.132;11.608;2023-01-16T19:34:24;7.30;1.00
827;DHT22;395;48.132;11.608;2023-01-16T19:36:51;7.30;1.00
827;DHT22;395;48.132;11.608;2023-01-16T19:39:18;7.20;1.00
827;DHT22;395;48.132;11.608;2023-01-16T19:41:43;7.10;1.00
827;DHT22;395;48.132;11.608;2023-01-16T19:44:28;7.00;1.00
827;DHT22;395;48.132;11.608;2023-01-16T19:47:12;6.80;1.00
827;DHT22;395;48.132;11.608;2023-01-16T19:49:39;6.60;1.00
827;DHT22;395;48.132;11.608;2023-01-16T19:52:10;6.60;1.00
827;DHT22;395;48.132;11.608;2023-01-16T19:54:36;6.70;1.00
827;DHT22;395;48.132;11.608;2023-01-16T19:57:02;6.50;1.00
827;DHT22;395;48.132;11.608;2023-01-16T19:59:27;6.40;1.00
827;DHT22;395;48.132;11.608;2023-01-16T20:02:02;6.30;1.00
827;DHT22;395;48.132;11.608;2023-01-16T20:04:35;6.20;1.00
827;DHT22;395;48.132;11.608;2023-01-16T20:07:02;6.20;1.00